METAR AND TAF INFORMATION
METAR FOR LEVS
ADDS - METARS form results

(0843 UTC 25 January 2022)
Data provider http://aviationweather.gov/metar/data/
 
METAR text: LEVS 250830Z 04004KT 340V110 9999 BKN028 07/01 Q1031
Conditions at: LEVS (MADRID/CUATRO VI, ES) observed 0830 UTC 25 January 2022
Temperature: 7.0°C (45°F)
Dewpoint: 1.0°C (34°F) [RH = 66%]
Pressure (altimeter): 30.44 inches Hg (1031.0 mb)
Winds: from the NE (40 degrees) at 5 MPH (4 knots; 2.1 m/s)
Visibility: 6 or more miles (10+ km)
Ceiling: 2800 feet AGL
Clouds: broken clouds at 2800 feet AGL
Weather: no significant weather observed at this time

METAR text: LEVS 250800Z 06004KT 010V100 9999 SCT024 BKN058 07/01 Q1030
Conditions at: LEVS (MADRID/CUATRO VI, ES) observed 0800 UTC 25 January 2022
Temperature: 7.0°C (45°F)
Dewpoint: 1.0°C (34°F) [RH = 66%]
Pressure (altimeter): 30.41 inches Hg (1030.0 mb)
Winds: from the ENE (60 degrees) at 5 MPH (4 knots; 2.1 m/s)
Visibility: 6 or more miles (10+ km)
Ceiling: 5800 feet AGL
Clouds: scattered clouds at 2400 feet AGL
broken clouds at 5800 feet AGL
Weather: no significant weather observed at this time

Forecast for: LEVS (MADRID/CUATRO VI, ES)
Text: TAF LEVS 250500Z 2506/2606 04007KT 9999 FEW020 BKN045 TX11/2515Z TN03/2507Z
Forecast period: 0600 UTC 25 January 2022 to 0600 UTC 26 January 2022
Forecast type: FROM: standard forecast or significant change
Winds: from the NE (40 degrees) at 8 MPH (7 knots; 3.6 m/s)
Visibility: 6 or more miles (10+ km)
Ceiling: 4500 feet AGL
Clouds: few clouds at 2000 feet AGL
broken clouds at 4500 feet AGL
Weather: no significant weather forecast for this period

 AIRPORT MAP

 RUNWAY INFORMATION

 AIRPORT FREQUENCIES

 AIRPORT NEAR NAVIGATION AIDS